Entiat, WA

5:29 AM PDT on September 18, 2014 (GMT -0700)
RAWS ENTIAT WA US | Change Station
CLOSE
Current Station
Personal Weather Station
Location: Entiat, WA
Elevation: 2825 ft
Nearby Weather Stations

Elev 2825 ft 47.73 °N, 120.24 °W | Updated 47 minutes ago

Overcast
Overcast
70 °F
Feels Like 70 °F
N
16
Wind Variable Wind from WNW
Gusts 27.0 mph

Today
High -- | Low -- °F
--% Chance of Precip.
Yesterday
High -- | Low -- °F
Precip. -- in
6:42 AM 7:06 PM
Waning Crescent, 27% visible
Pressure 29.61 in
Visibility 10.0 miles
Clouds Clear
Dew Point 44 °F
Humidity 39%
Rainfall 0.00 in
Snow Depth 0 in , 0 in , 0 in
UV 0 out of 12
Pollen 2.50 out of 12
Air Quality Not available.
Flu Activity Not available.
METAR KEAT 181055Z AUTO 31007KT 10SM CLR 23/08 A2964 RMK AO2 SLP027 T02280083

More Conditions Fewer Conditions

Pressure 29.61 in
Visibility 10.0 miles
Clouds Clear
Dew Point 44 °F
Humidity 39%
Rainfall 0.00 in
Snow Depth 0 in , 0 in , 0 in
UV 0 out of 12
Pollen 2.50 out of 12
Air Quality Not available.
Flu Activity Not available.
METAR KEAT 181055Z AUTO 31007KT 10SM CLR 23/08 A2964 RMK AO2 SLP027 T02280083

More Conditions Fewer Conditions

10-Day Weather Forecast

Almanac

Astronomy

Sep. 18, 2014 Rise Set
Actual Time 6:42 AM PDT 7:06 PM PDT
Civil Twilight 6:11 AM PDT 7:37 PM PDT
Nautical Twilight 5:35 AM PDT 8:14 PM PDT
Astronomical Twilight 4:56 AM PDT 8:52 PM PDT
Moon 1:22 AM PDT 4:16 PM PDT
Length of Visible Light 13h 26m
Length of Day
12h 24m
Tomorrow will be 3m 25s shorter.
Waning Crescent, 27% of the Moon is Illuminated
Today
Waning Crescent
Sep 24
New
Oct 1
First Quarter
Oct 8
Full
Oct 15
Last Quarter

Today's Extremes

State Highs State Lows

Community

WunderPhotos

Upload Photos

1,754,333 photos uploaded!

Nearby

Snow Depth

Station Depth Elevation
Mount Crag 0 in 4050 ft
Grouse Camp 0 in 5380 ft
Burnt Mountain 0 in 4200 ft
Bunchgrass Meadow 0 in 5000 ft
Morse Lake 0 in 5400 ft

Earthquake Activity

City Distance Mag. Time & Date
No recent earthquake activity has been reported nearby.
Minimum magnitude displayed is 2.5.

Coastal Water Temperatures

Place Temperature
No Stations Reporting

Nearby Weather Stations